Time;durP1;ratioP1;P1;durP2;ratioP2;P2;SDS_P1;SDS_P2;PMS_P1;PMS_P2;Temp;Humidity;BMP_temperature;BMP_pressure;BME280_temperature;BME280_humidity;BME280_pressure;Samples;Min_cycle;Max_cycle;Signal;HPM_P1;HPM_P2
2021/01/10 00:04:10;;;;;;;37.80;17.83;;;;;;;;;;10443661;28;20235;-70
2021/01/10 00:09:13;;;;;;;43.03;17.43;;;;;;;;;;10438264;28;20237;-70
2021/01/10 00:14:15;;;;;;;37.83;18.50;;;;;;;;;;10438587;28;20953;-69
2021/01/10 00:19:17;;;;;;;47.23;19.10;;;;;;;;;;10440506;28;20207;-70
2021/01/10 00:24:19;;;;;;;42.30;17.13;;;;;;;;;;10442824;28;20231;-71
2021/01/10 00:29:21;;;;;;;42.60;18.20;;;;;;;;;;10445798;28;20207;-71
2021/01/10 00:34:23;;;;;;;39.20;16.53;;;;;;;;;;10439966;28;20211;-70
2021/01/10 00:39:26;;;;;;;39.37;17.97;;;;;;;;;;10436918;28;20225;-69
2021/01/10 00:44:28;;;;;;;39.50;17.07;;;;;;;;;;10433242;28;21969;-70
2021/01/10 00:49:30;;;;;;;36.17;17.67;;;;;;;;;;10436242;28;21100;-70
2021/01/10 00:54:33;;;;;;;41.93;17.13;;;;;;;;;;10435734;28;20215;-69
2021/01/10 00:59:37;;;;;;;38.23;18.13;;;;;;;;;;10436674;28;20227;-70
2021/01/10 01:04:39;;;;;;;37.20;17.40;;;;;;;;;;10439138;28;20244;-70
2021/01/10 01:09:42;;;;;;;39.63;17.60;;;;;;;;;;10437165;28;20242;-70
2021/01/10 01:14:57;;;;;;;47.27;18.40;;;;;;;;;;10434555;28;20206;-71
2021/01/10 01:19:59;;;;;;;42.43;16.80;;;;;;;;;;10437150;28;20215;-71
2021/01/10 01:25:03;;;;;;;39.77;17.67;;;;;;;;;;10437434;28;20281;-71
2021/01/10 01:30:05;;;;;;;38.10;17.13;;;;;;;;;;10433989;28;20215;-70
2021/01/10 01:35:08;;;;;;;46.27;17.50;;;;;;;;;;10435615;28;20711;-71
2021/01/10 01:40:10;;;;;;;41.03;17.23;;;;;;;;;;10435821;28;20987;-70
2021/01/10 01:45:13;;;;;;;37.10;14.80;;;;;;;;;;10433672;28;20270;-72
2021/01/10 01:50:15;;;;;;;33.97;14.43;;;;;;;;;;10442015;28;20207;-71
2021/01/10 01:55:18;;;;;;;32.53;14.33;;;;;;;;;;10445939;28;20211;-71
2021/01/10 02:00:20;;;;;;;32.47;16.70;;;;;;;;;;10443268;28;20223;-71
2021/01/10 02:05:22;;;;;;;34.97;14.67;;;;;;;;;;10444346;28;20233;-71
2021/01/10 02:10:27;;;;;;;33.30;13.73;;;;;;;;;;10451551;28;20736;-70
2021/01/10 02:15:31;;;;;;;36.23;14.03;;;;;;;;;;10437854;28;20206;-70
2021/01/10 02:20:33;;;;;;;32.47;13.23;;;;;;;;;;10443011;28;20214;-70
2021/01/10 02:25:37;;;;;;;27.50;13.33;;;;;;;;;;10441293;28;20265;-70
2021/01/10 02:30:40;;;;;;;32.43;12.80;;;;;;;;;;10442949;28;20598;-70
2021/01/10 02:35:43;;;;;;;36.33;12.97;;;;;;;;;;10439976;28;20215;-71
2021/01/10 02:40:50;;;;;;;27.97;12.60;;;;;;;;;;10444813;28;20207;-71
2021/01/10 02:45:56;;;;;;;28.10;12.13;;;;;;;;;;10436936;28;21047;-72
2021/01/10 02:50:58;;;;;;;30.47;12.07;;;;;;;;;;10444739;28;20673;-69
2021/01/10 02:56:00;;;;;;;30.70;11.93;;;;;;;;;;10442618;28;20210;-70
2021/01/10 03:01:03;;;;;;;25.87;10.97;;;;;;;;;;10437861;28;20231;-71
2021/01/10 03:06:05;;;;;;;24.77;11.70;;;;;;;;;;10440398;28;20724;-69
2021/01/10 03:11:08;;;;;;;23.30;11.50;;;;;;;;;;10437963;28;21965;-71
2021/01/10 03:16:10;;;;;;;24.03;11.30;;;;;;;;;;10442630;28;20222;-71
2021/01/10 03:21:13;;;;;;;23.40;11.77;;;;;;;;;;10443799;28;20212;-70
2021/01/10 03:26:15;;;;;;;22.80;11.10;;;;;;;;;;10443444;28;20262;-70
2021/01/10 03:31:17;;;;;;;23.33;10.83;;;;;;;;;;10435817;28;20683;-69
2021/01/10 03:36:19;;;;;;;24.50;11.67;;;;;;;;;;10440592;28;20215;-72
2021/01/10 03:41:23;;;;;;;22.63;10.83;;;;;;;;;;10438931;28;20223;-71
2021/01/10 03:46:25;;;;;;;26.20;11.63;;;;;;;;;;10441096;28;20235;-70
2021/01/10 03:51:27;;;;;;;29.67;12.53;;;;;;;;;;10441387;28;21117;-70
2021/01/10 03:56:29;;;;;;;28.40;12.73;;;;;;;;;;10446720;28;20222;-71
2021/01/10 04:01:31;;;;;;;20.57;10.63;;;;;;;;;;10438224;28;20242;-70
2021/01/10 04:06:34;;;;;;;27.17;11.83;;;;;;;;;;10440335;28;20232;-70
2021/01/10 04:11:37;;;;;;;28.20;11.97;;;;;;;;;;10441992;28;20361;-71
2021/01/10 04:16:39;;;;;;;25.57;11.30;;;;;;;;;;10447114;28;20885;-71
2021/01/10 04:21:41;;;;;;;24.87;10.10;;;;;;;;;;10440855;28;20203;-71
2021/01/10 04:26:46;;;;;;;20.87;11.63;;;;;;;;;;10432632;28;20234;-71
2021/01/10 04:31:48;;;;;;;23.63;11.47;;;;;;;;;;10435280;28;20222;-69
2021/01/10 04:36:51;;;;;;;24.80;9.80;;;;;;;;;;10435392;28;20351;-70
2021/01/10 04:41:53;;;;;;;20.70;10.63;;;;;;;;;;10439065;28;21136;-69
2021/01/10 04:46:55;;;;;;;19.80;10.37;;;;;;;;;;10433421;28;20230;-70
2021/01/10 04:52:02;;;;;;;23.87;11.60;;;;;;;;;;10435265;28;20604;-70
2021/01/10 04:57:07;;;;;;;27.50;10.73;;;;;;;;;;10432216;28;20210;-69
2021/01/10 05:02:09;;;;;;;22.27;10.17;;;;;;;;;;10432938;28;20767;-70
2021/01/10 05:07:11;;;;;;;24.13;9.97;;;;;;;;;;10433085;28;20235;-70
2021/01/10 05:12:14;;;;;;;25.43;11.33;;;;;;;;;;10436628;28;20242;-71
2021/01/10 05:17:20;;;;;;;26.00;11.43;;;;;;;;;;10431435;28;20210;-70
2021/01/10 05:22:23;;;;;;;23.70;11.83;;;;;;;;;;10433556;28;20222;-70
2021/01/10 05:27:36;;;;;;;27.13;11.63;;;;;;;;;;10429551;28;20231;-70
2021/01/10 05:32:38;;;;;;;25.70;11.60;;;;;;;;;;10434151;28;20217;-69
2021/01/10 05:37:53;;;;;;;24.57;11.23;;;;;;;;;;10435550;28;20221;-70
2021/01/10 05:42:56;;;;;;;26.87;10.63;;;;;;;;;;10435074;28;20206;-70
2021/01/10 05:48:07;;;;;;;19.70;11.00;;;;;;;;;;10429910;28;20605;-70
2021/01/10 05:53:15;;;;;;;28.63;12.10;;;;;;;;;;10432114;28;20207;-70
2021/01/10 05:58:18;;;;;;;25.60;11.27;;;;;;;;;;10430346;28;20226;-69
2021/01/10 06:03:21;;;;;;;29.40;12.63;;;;;;;;;;10432169;28;20218;-70
2021/01/10 06:08:26;;;;;;;23.80;11.70;;;;;;;;;;10431426;28;21263;-71
2021/01/10 06:13:29;;;;;;;24.87;11.17;;;;;;;;;;10434604;28;20229;-70
2021/01/10 06:18:31;;;;;;;29.30;11.90;;;;;;;;;;10433587;28;20214;-70
2021/01/10 06:23:33;;;;;;;24.13;12.10;;;;;;;;;;10429726;28;20211;-68
2021/01/10 06:28:37;;;;;;;24.67;11.37;;;;;;;;;;10433855;28;20241;-71
2021/01/10 06:33:40;;;;;;;22.87;11.77;;;;;;;;;;10437205;28;20376;-71
2021/01/10 06:38:42;;;;;;;23.93;11.73;;;;;;;;;;10442590;28;20664;-71
2021/01/10 06:43:47;;;;;;;22.57;10.70;;;;;;;;;;10437359;28;20203;-71
2021/01/10 06:48:49;;;;;;;26.93;11.57;;;;;;;;;;10442808;28;20234;-71
2021/01/10 06:53:51;;;;;;;26.50;11.70;;;;;;;;;;10439056;28;20682;-71
2021/01/10 06:59:03;;;;;;;28.57;11.30;;;;;;;;;;10446634;28;20239;-70
2021/01/10 07:04:05;;;;;;;32.03;11.50;;;;;;;;;;10440150;28;20218;-70
2021/01/10 07:09:07;;;;;;;23.23;10.70;;;;;;;;;;10443987;28;20253;-69
2021/01/10 07:14:25;;;;;;;22.20;10.47;;;;;;;;;;10448231;28;20210;-71
2021/01/10 07:19:39;;;;;;;22.77;10.37;;;;;;;;;;10454847;28;20207;-75
2021/01/10 07:24:40;;;;;;;22.67;10.30;;;;;;;;;;10447171;28;20277;-76
2021/01/10 07:29:43;;;;;;;24.73;10.40;;;;;;;;;;10442772;28;20607;-75
2021/01/10 07:34:58;;;;;;;34.73;9.53;;;;;;;;;;10442878;28;20291;-77
2021/01/10 07:40:01;;;;;;;27.70;10.07;;;;;;;;;;10448044;28;20616;-76
2021/01/10 07:45:09;;;;;;;19.03;10.17;;;;;;;;;;10441543;28;20230;-76
2021/01/10 07:50:20;;;;;;;21.47;9.67;;;;;;;;;;10451013;28;20210;-76
2021/01/10 07:55:31;;;;;;;21.63;9.17;;;;;;;;;;10451331;28;20202;-77
2021/01/10 08:00:35;;;;;;;20.50;9.40;;;;;;;;;;10454885;28;20237;-76
2021/01/10 08:05:38;;;;;;;17.73;8.40;;;;;;;;;;10441531;28;20685;-77
2021/01/10 08:10:43;;;;;;;20.03;8.93;;;;;;;;;;10442577;28;20230;-75
2021/01/10 08:15:48;;;;;;;21.37;9.03;;;;;;;;;;10449723;28;20225;-76
2021/01/10 08:20:51;;;;;;;22.77;8.73;;;;;;;;;;10450655;28;20345;-77
2021/01/10 08:26:00;;;;;;;17.07;8.33;;;;;;;;;;10447888;28;20234;-76
2021/01/10 08:31:04;;;;;;;28.13;8.80;;;;;;;;;;10447827;28;20214;-76
2021/01/10 08:36:09;;;;;;;20.20;9.80;;;;;;;;;;10451629;28;20222;-76
2021/01/10 08:41:11;;;;;;;20.53;8.20;;;;;;;;;;10448930;28;21063;-77
2021/01/10 08:46:14;;;;;;;18.77;8.47;;;;;;;;;;10448425;28;20234;-77
2021/01/10 08:51:28;;;;;;;20.47;8.33;;;;;;;;;;10451885;28;20223;-77
2021/01/10 08:56:31;;;;;;;24.33;8.70;;;;;;;;;;10448951;28;20248;-74
2021/01/10 09:01:34;;;;;;;22.00;8.17;;;;;;;;;;10450530;28;20230;-76
2021/01/10 09:06:52;;;;;;;20.97;8.23;;;;;;;;;;10445920;28;20607;-76
2021/01/10 09:11:56;;;;;;;24.60;7.87;;;;;;;;;;10446300;28;20237;-75
2021/01/10 09:17:00;;;;;;;15.10;7.50;;;;;;;;;;10444769;28;20624;-77
2021/01/10 09:22:02;;;;;;;18.33;7.40;;;;;;;;;;10450096;28;20336;-77
2021/01/10 09:27:11;;;;;;;18.03;8.20;;;;;;;;;;10439935;28;20622;-77
2021/01/10 09:32:20;;;;;;;20.60;7.70;;;;;;;;;;10454907;28;20218;-76
2021/01/10 09:37:26;;;;;;;22.50;7.13;;;;;;;;;;10448484;28;20594;-76
2021/01/10 09:42:39;;;;;;;17.80;6.30;;;;;;;;;;10451507;28;20206;-76
2021/01/10 09:47:42;;;;;;;18.90;6.23;;;;;;;;;;10442748;28;20725;-77
2021/01/10 09:52:48;;;;;;;19.83;6.47;;;;;;;;;;10441798;28;20210;-76
2021/01/10 09:57:49;;;;;;;15.97;5.73;;;;;;;;;;10443196;28;20203;-77
2021/01/10 10:02:53;;;;;;;11.93;5.50;;;;;;;;;;10453279;28;20222;-77
2021/01/10 10:08:00;;;;;;;12.03;5.70;;;;;;;;;;10439632;28;20234;-77
2021/01/10 10:13:04;;;;;;;14.57;5.30;;;;;;;;;;10460207;28;20211;-77
2021/01/10 10:18:07;;;;;;;11.20;4.93;;;;;;;;;;10448892;28;20211;-77
2021/01/10 10:23:09;;;;;;;14.53;5.60;;;;;;;;;;10449434;28;20573;-77
2021/01/10 10:28:11;;;;;;;13.33;5.33;;;;;;;;;;10451525;28;20723;-77
2021/01/10 10:33:13;;;;;;;11.50;5.47;;;;;;;;;;10456561;28;20211;-76
2021/01/10 10:38:15;;;;;;;12.37;5.10;;;;;;;;;;10464084;28;20238;-76
2021/01/10 10:43:17;;;;;;;10.97;5.17;;;;;;;;;;10447164;28;20222;-76
2021/01/10 10:48:19;;;;;;;16.63;5.63;;;;;;;;;;10453890;28;20712;-76
2021/01/10 10:53:22;;;;;;;11.80;5.00;;;;;;;;;;10446490;28;20210;-76
2021/01/10 10:58:24;;;;;;;13.23;5.37;;;;;;;;;;10452653;28;20226;-76
2021/01/10 11:03:26;;;;;;;12.77;5.37;;;;;;;;;;10447509;28;20203;-77
2021/01/10 11:08:28;;;;;;;11.47;5.50;;;;;;;;;;10455042;28;20314;-76
2021/01/10 11:13:30;;;;;;;14.57;5.63;;;;;;;;;;10456615;28;20206;-76
2021/01/10 11:18:34;;;;;;;11.57;5.13;;;;;;;;;;10455439;28;20585;-75
2021/01/10 11:23:36;;;;;;;10.87;5.10;;;;;;;;;;10449187;28;20573;-75
2021/01/10 11:28:37;;;;;;;11.60;5.07;;;;;;;;;;10449044;28;20230;-75
2021/01/10 11:33:40;;;;;;;11.47;4.93;;;;;;;;;;10451855;28;20272;-76
2021/01/10 11:38:42;;;;;;;17.13;5.53;;;;;;;;;;10449891;28;20728;-76
2021/01/10 11:43:44;;;;;;;18.83;5.57;;;;;;;;;;10450267;28;20214;-76
2021/01/10 11:48:47;;;;;;;12.73;5.60;;;;;;;;;;10448307;28;20235;-76
2021/01/10 11:53:48;;;;;;;13.87;5.90;;;;;;;;;;10446642;28;20207;-76
2021/01/10 11:58:50;;;;;;;11.67;5.70;;;;;;;;;;10446533;28;20230;-75
2021/01/10 12:03:53;;;;;;;16.80;6.00;;;;;;;;;;10458230;28;20230;-76
2021/01/10 12:08:55;;;;;;;12.13;5.93;;;;;;;;;;10452850;28;20243;-75
2021/01/10 12:13:56;;;;;;;11.93;5.70;;;;;;;;;;10447326;28;20221;-75
2021/01/10 12:18:59;;;;;;;12.93;6.17;;;;;;;;;;10444369;28;20214;-75
2021/01/10 12:24:01;;;;;;;15.87;6.47;;;;;;;;;;10450147;28;20211;-75
2021/01/10 12:29:03;;;;;;;17.53;6.27;;;;;;;;;;10440903;28;20231;-74
2021/01/10 12:34:05;;;;;;;16.13;6.80;;;;;;;;;;10437786;28;20695;-74
2021/01/10 12:39:07;;;;;;;12.50;7.00;;;;;;;;;;10440650;28;20231;-76
2021/01/10 12:44:09;;;;;;;12.60;6.60;;;;;;;;;;10439228;28;20207;-74
2021/01/10 12:49:12;;;;;;;17.47;7.03;;;;;;;;;;10445226;28;20230;-76
2021/01/10 12:54:13;;;;;;;15.73;6.83;;;;;;;;;;10444165;28;20214;-74
2021/01/10 12:59:15;;;;;;;13.57;7.17;;;;;;;;;;10439942;28;20246;-75
2021/01/10 13:04:18;;;;;;;12.30;7.03;;;;;;;;;;10445850;28;20199;-74
2021/01/10 13:09:20;;;;;;;15.93;7.40;;;;;;;;;;10436870;28;20254;-74
2021/01/10 13:14:21;;;;;;;13.17;7.10;;;;;;;;;;10454627;28;20211;-76
2021/01/10 13:19:25;;;;;;;17.00;8.07;;;;;;;;;;10446497;28;20207;-75
2021/01/10 13:24:28;;;;;;;16.70;8.30;;;;;;;;;;10443542;28;20214;-75
2021/01/10 13:29:30;;;;;;;14.83;7.70;;;;;;;;;;10438351;28;20649;-74
2021/01/10 13:34:34;;;;;;;12.40;7.43;;;;;;;;;;10445856;28;20788;-76
2021/01/10 13:39:36;;;;;;;21.37;7.97;;;;;;;;;;10438056;28;20230;-74
2021/01/10 13:44:38;;;;;;;12.83;7.60;;;;;;;;;;10443279;28;20217;-75
2021/01/10 13:49:41;;;;;;;13.63;7.53;;;;;;;;;;10450525;28;20648;-77
2021/01/10 13:54:42;;;;;;;14.23;7.80;;;;;;;;;;10453378;28;20551;-75
2021/01/10 14:00:01;;;;;;;22.57;8.87;;;;;;;;;;10452211;28;20226;-75
2021/01/10 14:05:04;;;;;;;13.37;7.50;;;;;;;;;;10451065;28;20215;-76
2021/01/10 14:10:07;;;;;;;15.13;7.83;;;;;;;;;;10441431;28;20245;-71
2021/01/10 14:15:10;;;;;;;15.33;7.70;;;;;;;;;;10442398;28;20211;-75
2021/01/10 14:20:13;;;;;;;18.43;7.37;;;;;;;;;;10446187;28;20203;-73
2021/01/10 14:25:15;;;;;;;14.77;7.17;;;;;;;;;;10451650;28;20231;-73
2021/01/10 14:30:18;;;;;;;14.87;7.40;;;;;;;;;;10445950;28;20220;-73
2021/01/10 14:35:21;;;;;;;14.23;7.30;;;;;;;;;;10447469;28;20893;-76
2021/01/10 14:40:23;;;;;;;14.90;7.37;;;;;;;;;;10451513;28;20199;-76
2021/01/10 14:45:25;;;;;;;17.20;8.27;;;;;;;;;;10454195;28;20709;-75
2021/01/10 14:50:28;;;;;;;14.13;7.93;;;;;;;;;;10451276;28;20219;-74
2021/01/10 14:55:30;;;;;;;18.20;7.97;;;;;;;;;;10449613;28;20747;-69
2021/01/10 15:00:31;;;;;;;17.93;8.03;;;;;;;;;;10444824;28;20230;-69
2021/01/10 15:05:34;;;;;;;15.27;8.27;;;;;;;;;;10443646;28;20233;-69
2021/01/10 15:10:36;;;;;;;20.27;8.30;;;;;;;;;;10443521;28;20766;-68
2021/01/10 15:15:38;;;;;;;13.87;7.67;;;;;;;;;;10443046;28;20207;-69
2021/01/10 15:20:41;;;;;;;16.30;8.10;;;;;;;;;;10446095;28;20982;-69
2021/01/10 15:25:43;;;;;;;25.33;11.50;;;;;;;;;;10444821;28;20645;-81
2021/01/10 15:30:45;;;;;;;12.77;6.87;;;;;;;;;;10445926;28;20219;-81
2021/01/10 15:35:49;;;;;;;19.43;13.60;;;;;;;;;;10438639;28;20207;-79
2021/01/10 15:40:55;;;;;;;12.13;8.68;;;;;;;;;;10441197;28;20947;-87
2021/01/10 15:45:57;;;;;;;42.90;18.40;;;;;;;;;;10443736;28;20476;-81
2021/01/10 15:51:00;;;;;;;20.55;10.93;;;;;;;;;;10447007;28;20465;-78
2021/01/10 15:56:02;;;;;;;37.40;15.77;;;;;;;;;;10428686;28;20867;-76
2021/01/10 16:01:04;;;;;;;36.13;16.00;;;;;;;;;;10431876;28;20470;-79
2021/01/10 16:06:07;;;;;;;52.47;21.40;;;;;;;;;;10443241;28;20223;-78
2021/01/10 16:11:09;;;;;;;12.67;6.97;;;;;;;;;;10434933;28;20254;-78
2021/01/10 16:16:18;;;;;;;10.10;6.90;;;;;;;;;;10431122;28;20246;-79
2021/01/10 16:21:21;;;;;;;14.48;8.23;;;;;;;;;;10433645;28;20509;-79
2021/01/10 16:26:22;;;;;;;13.13;7.77;;;;;;;;;;10434896;28;20615;-77
2021/01/10 16:31:45;;;;;;;15.23;8.30;;;;;;;;;;10432745;28;20348;-85
2021/01/10 16:36:51;;;;;;;18.83;10.15;;;;;;;;;;10437324;28;20944;-79
2021/01/10 16:41:55;;;;;;;15.37;9.40;;;;;;;;;;10433344;28;20485;-82
2021/01/10 16:46:57;;;;;;;21.23;13.17;;;;;;;;;;10433346;28;20658;-80
2021/01/10 16:52:00;;;;;;;30.40;17.73;;;;;;;;;;10432322;28;21077;-81
2021/01/10 16:57:02;;;;;;;28.77;14.90;;;;;;;;;;10435319;28;20465;-81
2021/01/10 17:02:04;;;;;;;17.73;9.00;;;;;;;;;;10429630;28;20230;-78
2021/01/10 17:07:14;;;;;;;12.63;7.20;;;;;;;;;;10431370;28;20245;-84
2021/01/10 17:12:16;;;;;;;11.83;7.20;;;;;;;;;;10431467;28;20242;-83
2021/01/10 17:17:18;;;;;;;12.47;7.67;;;;;;;;;;10434337;28;20826;-81
2021/01/10 17:22:26;;;;;;;8.77;6.47;;;;;;;;;;10432393;28;20312;-82
2021/01/10 17:27:31;;;;;;;12.53;7.40;;;;;;;;;;10426857;28;20232;-81
2021/01/10 17:32:37;;;;;;;10.47;7.00;;;;;;;;;;10428304;28;20214;-81
2021/01/10 17:37:57;;;;;;;12.20;7.13;;;;;;;;;;10433504;28;20685;-80
2021/01/10 17:43:04;;;;;;;10.50;6.63;;;;;;;;;;10430209;28;21284;-80
2021/01/10 17:48:07;;;;;;;12.77;7.00;;;;;;;;;;10427679;28;20720;-83
2021/01/10 17:53:11;;;;;;;12.27;7.20;;;;;;;;;;10433655;28;20330;-81
2021/01/10 17:58:15;;;;;;;9.87;7.13;;;;;;;;;;10433195;28;20517;-82
2021/01/10 18:03:22;;;;;;;12.13;7.73;;;;;;;;;;10427219;28;20211;-79
2021/01/10 18:08:24;;;;;;;14.00;8.23;;;;;;;;;;10432522;28;20871;-81
2021/01/10 18:13:59;;;;;;;;;;;;;;;;;;;;;
2021/01/10 18:25:52;;;;;;;11.57;8.00;;;;;;;;;;10357039;28;20389;-88
2021/01/10 18:30:57;;;;;;;11.23;7.87;;;;;;;;;;10352227;28;20204;-79
2021/01/10 18:36:00;;;;;;;12.67;8.47;;;;;;;;;;10352551;28;20608;-81
2021/01/10 18:41:04;;;;;;;14.63;8.83;;;;;;;;;;10356660;28;20323;-81
2021/01/10 18:46:10;;;;;;;11.07;7.03;;;;;;;;;;10355090;28;20228;-81
2021/01/10 18:56:59;;;;;;;11.23;7.40;;;;;;;;;;10395851;28;20215;-80
2021/01/10 19:02:03;;;;;;;8.97;6.50;;;;;;;;;;10436398;28;20364;-80
2021/01/10 19:07:19;;;;;;;12.77;6.83;;;;;;;;;;10440032;28;20266;-80
2021/01/10 19:12:24;;;;;;;9.90;6.87;;;;;;;;;;10438858;28;20267;-79
2021/01/10 19:17:35;;;;;;;10.93;7.83;;;;;;;;;;10437942;28;20215;-80
2021/01/10 19:22:46;;;;;;;10.33;7.47;;;;;;;;;;10437552;28;20690;-80
2021/01/10 19:27:50;;;;;;;13.47;8.50;;;;;;;;;;10440191;28;20268;-79
2021/01/10 19:32:55;;;;;;;15.13;8.80;;;;;;;;;;10456453;28;20290;-79
2021/01/10 19:37:57;;;;;;;10.87;7.70;;;;;;;;;;10444475;28;20216;-79
2021/01/10 19:43:00;;;;;;;12.70;8.13;;;;;;;;;;10442763;28;20610;-79
2021/01/10 19:48:04;;;;;;;13.23;8.50;;;;;;;;;;10463470;28;20353;-79
2021/01/10 19:53:06;;;;;;;12.83;8.50;;;;;;;;;;10484548;28;20211;-80
2021/01/10 19:58:14;;;;;;;14.23;8.90;;;;;;;;;;10487437;28;20228;-80
2021/01/10 20:03:18;;;;;;;13.67;8.10;;;;;;;;;;10475209;28;20202;-80
2021/01/10 20:08:20;;;;;;;16.77;8.40;;;;;;;;;;10465684;28;20292;-79
2021/01/10 20:13:23;;;;;;;13.80;8.43;;;;;;;;;;10469012;28;20218;-79
2021/01/10 20:18:27;;;;;;;11.83;8.20;;;;;;;;;;10484681;28;20221;-80
2021/01/10 20:23:31;;;;;;;13.63;8.50;;;;;;;;;;10481333;28;20642;-79
2021/01/10 20:28:36;;;;;;;12.87;8.73;;;;;;;;;;10460655;28;20235;-78
2021/01/10 20:33:38;;;;;;;11.50;7.80;;;;;;;;;;10438020;28;20230;-80
2021/01/10 20:38:42;;;;;;;12.67;8.10;;;;;;;;;;10433365;28;20219;-80
2021/01/10 20:43:44;;;;;;;14.07;8.70;;;;;;;;;;10441543;28;20213;-78
2021/01/10 20:48:47;;;;;;;13.07;8.90;;;;;;;;;;10437179;28;20587;-80
2021/01/10 20:53:49;;;;;;;11.00;7.97;;;;;;;;;;10441389;28;20727;-79
2021/01/10 20:58:53;;;;;;;11.13;7.67;;;;;;;;;;10443906;28;20228;-80
2021/01/10 21:03:57;;;;;;;14.23;8.53;;;;;;;;;;10443602;28;20206;-80
2021/01/10 21:08:59;;;;;;;12.93;8.20;;;;;;;;;;10441172;28;20239;-80
2021/01/10 21:14:03;;;;;;;12.67;7.83;;;;;;;;;;10439152;28;20207;-79
2021/01/10 21:19:05;;;;;;;10.73;7.83;;;;;;;;;;10441193;28;20218;-79
2021/01/10 21:24:08;;;;;;;12.13;7.83;;;;;;;;;;10445331;28;20233;-80
2021/01/10 21:29:11;;;;;;;10.37;7.67;;;;;;;;;;10459687;28;20242;-78
2021/01/10 21:34:13;;;;;;;10.63;7.80;;;;;;;;;;10448324;28;21007;-79
2021/01/10 21:39:17;;;;;;;13.40;7.87;;;;;;;;;;10441988;28;21040;-82
2021/01/10 21:44:20;;;;;;;12.30;8.40;;;;;;;;;;10441524;28;20222;-80
2021/01/10 21:49:22;;;;;;;13.87;8.47;;;;;;;;;;10442767;28;20246;-80
2021/01/10 21:54:24;;;;;;;12.90;9.20;;;;;;;;;;10439499;28;20214;-80
2021/01/10 21:59:27;;;;;;;12.60;8.73;;;;;;;;;;10439917;28;20608;-79
2021/01/10 22:04:29;;;;;;;15.27;9.47;;;;;;;;;;10443602;28;20211;-78
2021/01/10 22:09:31;;;;;;;13.70;9.20;;;;;;;;;;10452423;28;20270;-79
2021/01/10 22:14:35;;;;;;;14.07;9.10;;;;;;;;;;10446935;28;20211;-81
2021/01/10 22:19:37;;;;;;;13.90;9.13;;;;;;;;;;10458811;28;20211;-81
2021/01/10 22:24:40;;;;;;;13.33;9.07;;;;;;;;;;10447115;28;22403;-81
2021/01/10 22:29:43;;;;;;;15.17;9.10;;;;;;;;;;10450882;28;20814;-81
2021/01/10 22:34:45;;;;;;;13.67;9.43;;;;;;;;;;10450197;28;20223;-81
2021/01/10 22:39:48;;;;;;;14.03;9.20;;;;;;;;;;10457616;28;20684;-82
2021/01/10 22:44:50;;;;;;;13.20;9.00;;;;;;;;;;10446798;28;20691;-79
2021/01/10 22:49:52;;;;;;;12.60;9.07;;;;;;;;;;10456597;28;20616;-80
2021/01/10 22:54:54;;;;;;;12.23;8.83;;;;;;;;;;10450987;28;20199;-79
2021/01/10 22:59:57;;;;;;;13.80;9.40;;;;;;;;;;10452588;28;20388;-80
2021/01/10 23:05:00;;;;;;;12.13;8.53;;;;;;;;;;10452808;28;20268;-78
2021/01/10 23:10:02;;;;;;;12.17;9.07;;;;;;;;;;10444930;28;20819;-80
2021/01/10 23:15:08;;;;;;;14.13;9.40;;;;;;;;;;10440973;28;20223;-81
2021/01/10 23:20:11;;;;;;;12.63;8.90;;;;;;;;;;10454725;28;20211;-82
2021/01/10 23:25:14;;;;;;;10.83;8.33;;;;;;;;;;10446175;28;20222;-84
2021/01/10 23:30:19;;;;;;;12.47;8.40;;;;;;;;;;10454611;28;20238;-77
2021/01/10 23:35:22;;;;;;;13.73;9.00;;;;;;;;;;10453498;28;20211;-82
2021/01/10 23:40:24;;;;;;;12.17;8.50;;;;;;;;;;10450595;28;20237;-78
2021/01/10 23:45:26;;;;;;;13.40;9.10;;;;;;;;;;10442064;28;20237;-79
2021/01/10 23:50:29;;;;;;;11.33;8.57;;;;;;;;;;10451702;28;20227;-79
2021/01/10 23:55:31;;;;;;;13.20;9.23;;;;;;;;;;10452973;28;20215;-79
